Time;durP1;ratioP1;P1;durP2;ratioP2;P2;SDS_P1;SDS_P2;PMS_P1;PMS_P2;Temp;Humidity;BMP_temperature;BMP_pressure;BME280_temperature;BME280_humidity;BME280_pressure;Samples;Min_cycle;Max_cycle;Signal;HPM_P1;HPM_P2
2021/06/19 00:00:30;;;;;;;0.70;0.70;;;20.90;77.20;;;;;;5104300;28;20085;-82
2021/06/19 00:02:58;;;;;;;1.25;0.70;;;20.80;77.20;;;;;;5119945;28;20065;-83
2021/06/19 00:05:25;;;;;;;0.90;0.80;;;20.90;77.30;;;;;;5139151;28;20024;-83
2021/06/19 00:07:51;;;;;;;1.00;0.70;;;20.80;77.30;;;;;;5121707;28;20015;-83
2021/06/19 00:10:18;;;;;;;0.60;0.60;;;20.80;77.30;;;;;;5104709;28;20036;-83
2021/06/19 00:12:46;;;;;;;0.82;0.68;;;20.80;77.40;;;;;;5120665;28;20032;-83
2021/06/19 00:15:15;;;;;;;0.80;0.80;;;20.80;77.40;;;;;;5139616;28;20030;-83
2021/06/19 00:17:41;;;;;;;0.65;0.65;;;20.70;77.50;;;;;;5087524;28;20027;-83
2021/06/19 00:20:10;;;;;;;0.82;0.80;;;20.70;77.60;;;;;;5103592;28;20036;-83
2021/06/19 00:22:36;;;;;;;0.80;0.80;;;20.60;77.60;;;;;;5103389;28;20145;-83
2021/06/19 00:25:03;;;;;;;0.80;0.80;;;20.60;77.70;;;;;;5138327;28;20044;-83
2021/06/19 00:27:29;;;;;;;0.73;0.65;;;20.70;77.70;;;;;;5118926;28;20034;-83
2021/06/19 00:29:54;;;;;;;1.88;0.68;;;20.70;77.70;;;;;;5117670;28;20044;-83
2021/06/19 00:32:20;;;;;;;1.08;0.80;;;20.70;77.70;;;;;;5117784;28;20048;-83
2021/06/19 00:34:46;;;;;;;0.88;0.80;;;20.60;77.60;;;;;;5116880;28;20067;-83
2021/06/19 00:37:12;;;;;;;0.55;0.52;;;20.60;77.70;;;;;;5117786;28;20061;-82
2021/06/19 00:39:39;;;;;;;0.98;0.88;;;20.60;77.70;;;;;;5099998;28;20044;-82
2021/06/19 00:42:05;;;;;;;1.40;0.93;;;20.60;77.70;;;;;;5097958;28;20039;-82
2021/06/19 00:44:31;;;;;;;0.70;0.70;;;20.50;77.60;;;;;;5115940;28;20055;-82
2021/06/19 00:46:58;;;;;;;0.98;0.70;;;20.60;77.70;;;;;;5115059;28;20020;-83
2021/06/19 00:49:25;;;;;;;0.70;0.70;;;20.60;77.70;;;;;;5086139;28;20392;-84
2021/06/19 00:51:52;;;;;;;0.70;0.70;;;20.60;77.70;;;;;;5099810;28;20043;-82
2021/06/19 00:54:18;;;;;;;0.82;0.57;;;20.60;77.60;;;;;;5120409;28;20069;-83
2021/06/19 00:56:44;;;;;;;0.60;0.60;;;20.70;77.60;;;;;;5085217;28;20038;-84
2021/06/19 00:59:10;;;;;;;0.60;0.60;;;20.80;77.40;;;;;;5067454;28;20118;-83
2021/06/19 01:01:37;;;;;;;0.90;0.70;;;20.80;77.10;;;;;;5102788;28;20063;-83
2021/06/19 01:04:04;;;;;;;0.60;0.60;;;20.90;77.00;;;;;;5102763;28;20047;-83
2021/06/19 01:06:32;;;;;;;2.58;0.50;;;21.00;76.70;;;;;;5121291;28;20039;-83
2021/06/19 01:08:58;;;;;;;0.55;0.55;;;21.10;76.40;;;;;;5101338;28;20378;-83
2021/06/19 01:11:26;;;;;;;0.40;0.40;;;21.10;76.40;;;;;;5103333;28;20050;-83
2021/06/19 01:13:52;;;;;;;0.40;0.40;;;21.10;76.10;;;;;;5085094;28;20106;-83
2021/06/19 01:16:20;;;;;;;0.52;0.52;;;21.10;76.00;;;;;;5084351;28;20382;-83
2021/06/19 01:18:46;;;;;;;0.40;0.40;;;21.20;76.10;;;;;;5085495;28;20043;-83
2021/06/19 01:21:17;;;;;;;0.57;0.57;;;21.10;75.80;;;;;;5117332;28;20047;-82
2021/06/19 01:23:44;;;;;;;1.13;0.60;;;21.20;75.80;;;;;;5099988;28;20051;-83
2021/06/19 01:26:15;;;;;;;0.60;0.60;;;21.20;75.70;;;;;;5067541;28;20374;-84
2021/06/19 01:28:42;;;;;;;0.50;0.50;;;21.30;75.80;;;;;;5101771;28;20513;-83
2021/06/19 01:31:08;;;;;;;0.50;0.50;;;21.20;75.60;;;;;;5101486;28;20434;-82
2021/06/19 01:33:36;;;;;;;0.50;0.50;;;21.30;75.60;;;;;;5083636;28;20071;-84
2021/06/19 01:36:02;;;;;;;0.40;0.40;;;21.30;75.50;;;;;;5083902;28;20044;-84
2021/06/19 01:38:28;;;;;;;0.40;0.40;;;21.30;75.50;;;;;;5064053;28;20039;-83
2021/06/19 01:40:54;;;;;;;0.40;0.40;;;21.30;75.60;;;;;;5079786;28;20051;-83
2021/06/19 01:43:19;;;;;;;0.40;0.40;;;21.20;75.60;;;;;;5081524;28;20398;-84
2021/06/19 01:45:45;;;;;;;0.60;0.60;;;21.20;75.70;;;;;;5100405;28;20036;-84
2021/06/19 01:48:11;;;;;;;0.50;0.50;;;21.20;75.80;;;;;;5099448;28;20051;-83
2021/06/19 01:50:37;;;;;;;0.43;0.43;;;21.20;75.70;;;;;;5082280;28;20405;-84
2021/06/19 01:53:04;;;;;;;0.50;0.50;;;21.20;75.70;;;;;;5067913;28;20126;-84
2021/06/19 01:55:30;;;;;;;0.57;0.57;;;21.20;76.20;;;;;;5082364;28;20045;-84
2021/06/19 01:57:59;;;;;;;0.85;0.60;;;21.20;75.60;;;;;;5097625;28;20075;-84
2021/06/19 02:00:27;;;;;;;0.50;0.50;;;21.20;76.20;;;;;;5117981;28;20122;-84
2021/06/19 02:02:53;;;;;;;0.50;0.50;;;21.20;75.60;;;;;;5082390;28;20128;-84
2021/06/19 02:05:20;;;;;;;0.50;0.50;;;21.20;75.70;;;;;;5097387;28;20420;-84
2021/06/19 02:07:50;;;;;;;0.65;0.60;;;21.20;75.70;;;;;;5082361;28;20130;-84
2021/06/19 02:10:18;;;;;;;0.60;0.60;;;21.10;75.70;;;;;;5098633;28;20126;-84
2021/06/19 02:12:45;;;;;;;0.80;0.70;;;21.10;75.80;;;;;;5081068;28;20035;-84
2021/06/19 02:15:11;;;;;;;0.57;0.55;;;21.10;75.90;;;;;;5099570;28;20130;-84
2021/06/19 02:17:37;;;;;;;0.50;0.50;;;21.10;75.90;;;;;;5082137;28;20123;-84
2021/06/19 02:20:06;;;;;;;0.55;0.55;;;21.00;75.90;;;;;;5118255;28;20040;-84
2021/06/19 02:22:32;;;;;;;0.70;0.63;;;21.00;76.00;;;;;;5100088;28;20035;-84
2021/06/19 02:24:58;;;;;;;0.40;0.40;;;21.00;76.00;;;;;;5097458;28;20555;-85
2021/06/19 02:27:24;;;;;;;0.50;0.50;;;21.10;76.20;;;;;;5098362;28;20078;-84
2021/06/19 02:29:50;;;;;;;0.60;0.60;;;21.00;76.20;;;;;;5115686;28;20067;-83
2021/06/19 02:32:16;;;;;;;0.50;0.50;;;21.00;76.30;;;;;;5082025;28;20046;-84
2021/06/19 02:34:42;;;;;;;0.60;0.60;;;20.90;76.30;;;;;;5081635;28;20043;-84
2021/06/19 02:37:08;;;;;;;0.50;0.50;;;20.90;76.30;;;;;;5082174;28;20036;-85
2021/06/19 02:39:34;;;;;;;0.40;0.40;;;21.00;76.30;;;;;;5096882;28;20048;-85
2021/06/19 02:41:59;;;;;;;0.82;0.70;;;20.90;76.30;;;;;;5081506;28;20040;-83
2021/06/19 02:44:25;;;;;;;0.90;0.65;;;20.90;76.50;;;;;;5116380;28;20028;-84
2021/06/19 02:46:51;;;;;;;0.60;0.60;;;20.90;76.50;;;;;;5098348;28;20035;-84
2021/06/19 02:49:17;;;;;;;0.60;0.60;;;20.90;76.60;;;;;;5098529;28;20100;-84
2021/06/19 02:51:42;;;;;;;1.27;0.65;;;20.90;76.60;;;;;;5096299;28;20190;-84
2021/06/19 02:54:08;;;;;;;0.52;0.52;;;20.90;76.60;;;;;;5079303;28;20073;-84
2021/06/19 02:56:34;;;;;;;0.68;0.60;;;20.90;76.60;;;;;;5115526;28;20032;-84
2021/06/19 02:59:00;;;;;;;1.15;0.70;;;20.90;76.60;;;;;;5080805;28;20469;-83
2021/06/19 03:01:26;;;;;;;0.60;0.60;;;20.80;76.60;;;;;;5114998;28;20165;-85
2021/06/19 03:03:52;;;;;;;0.68;0.68;;;20.90;76.60;;;;;;5098846;28;21134;-84
2021/06/19 03:06:18;;;;;;;0.68;0.60;;;20.90;76.50;;;;;;5099496;28;20091;-83
2021/06/19 03:08:44;;;;;;;0.88;0.73;;;20.90;76.50;;;;;;5082520;28;20036;-83
2021/06/19 03:11:10;;;;;;;1.00;0.60;;;20.90;76.50;;;;;;5080515;28;20036;-84
2021/06/19 03:13:35;;;;;;;0.73;0.70;;;21.00;76.50;;;;;;5098438;28;20046;-84
2021/06/19 03:16:01;;;;;;;0.90;0.70;;;21.00;76.50;;;;;;5081971;28;20137;-83
2021/06/19 03:18:27;;;;;;;0.65;0.65;;;20.90;76.40;;;;;;5097555;28;20106;-85
2021/06/19 03:20:52;;;;;;;0.65;0.65;;;21.00;76.40;;;;;;5098225;28;20464;-83
2021/06/19 03:23:18;;;;;;;0.70;0.70;;;20.90;76.40;;;;;;5115561;28;20039;-84
2021/06/19 03:25:44;;;;;;;0.70;0.60;;;21.00;76.50;;;;;;5079373;28;20496;-83
2021/06/19 03:28:13;;;;;;;0.63;0.63;;;21.00;76.50;;;;;;5096050;28;20040;-84
2021/06/19 03:30:45;;;;;;;0.60;0.60;;;21.00;76.60;;;;;;5113882;28;20035;-84
2021/06/19 03:33:12;;;;;;;0.75;0.70;;;21.00;76.60;;;;;;5115366;28;20058;-84
2021/06/19 03:35:38;;;;;;;2.30;0.80;;;21.00;76.60;;;;;;5098122;28;20039;-83
2021/06/19 03:38:06;;;;;;;0.70;0.70;;;21.00;76.60;;;;;;5116921;28;20128;-84
2021/06/19 03:40:32;;;;;;;0.80;0.80;;;21.00;76.60;;;;;;5097179;28;20519;-84
2021/06/19 03:42:58;;;;;;;0.70;0.70;;;21.00;76.60;;;;;;5097263;28;20039;-84
2021/06/19 03:45:26;;;;;;;0.85;0.60;;;21.00;76.60;;;;;;5094724;28;20040;-85
2021/06/19 03:47:54;;;;;;;1.17;0.75;;;21.00;76.60;;;;;;5095624;28;20078;-84
2021/06/19 03:50:21;;;;;;;0.75;0.73;;;21.10;76.70;;;;;;5061110;28;20039;-85
2021/06/19 03:52:47;;;;;;;0.60;0.60;;;21.00;76.70;;;;;;5094729;28;20039;-83
2021/06/19 03:55:13;;;;;;;0.90;0.90;;;21.10;76.80;;;;;;5094620;28;20195;-85
2021/06/19 03:57:40;;;;;;;0.68;0.68;;;21.10;76.80;;;;;;5098083;28;20070;-83
2021/06/19 04:00:10;;;;;;;1.20;0.75;;;21.00;76.80;;;;;;5086693;28;20115;-83
2021/06/19 04:02:36;;;;;;;1.00;0.90;;;21.00;76.80;;;;;;5078943;28;20112;-84
2021/06/19 04:05:02;;;;;;;0.73;0.70;;;21.00;76.80;;;;;;5077488;28;20070;-84
2021/06/19 04:07:28;;;;;;;0.60;0.60;;;21.00;76.80;;;;;;5077401;28;20086;-84
2021/06/19 04:09:54;;;;;;;0.60;0.60;;;21.10;77.00;;;;;;5095009;28;20048;-84
2021/06/19 04:12:21;;;;;;;0.40;0.40;;;21.00;76.90;;;;;;5112848;28;20035;-84
2021/06/19 04:14:48;;;;;;;0.50;0.50;;;21.00;77.00;;;;;;5094102;28;20043;-84
2021/06/19 04:17:14;;;;;;;0.60;0.60;;;21.00;77.00;;;;;;5077206;28;20047;-84
2021/06/19 04:19:41;;;;;;;0.50;0.50;;;21.00;77.10;;;;;;5080410;28;20058;-84
2021/06/19 04:22:08;;;;;;;0.93;0.80;;;21.00;77.10;;;;;;5097352;28;20040;-83
2021/06/19 04:24:34;;;;;;;0.70;0.70;;;21.00;77.10;;;;;;5113432;28;20042;-84
2021/06/19 04:27:00;;;;;;;0.70;0.70;;;21.00;77.10;;;;;;5062100;28;20048;-84
2021/06/19 04:29:28;;;;;;;0.65;0.65;;;21.10;77.10;;;;;;5116855;28;20047;-84
2021/06/19 04:31:55;;;;;;;0.60;0.60;;;21.10;77.10;;;;;;5081870;28;20108;-85
2021/06/19 04:34:21;;;;;;;0.50;0.50;;;21.10;77.00;;;;;;5083744;28;20050;-84
2021/06/19 04:36:47;;;;;;;0.68;0.68;;;21.10;77.00;;;;;;5119723;28;20051;-84
2021/06/19 04:39:13;;;;;;;0.70;0.70;;;21.10;77.00;;;;;;5118425;28;20036;-84
2021/06/19 04:41:49;;;;;;;0.60;0.60;;;21.10;77.00;;;;;;5099371;28;20044;-84
2021/06/19 04:44:28;;;;;;;0.82;0.82;;;21.20;77.00;;;;;;5067449;28;20456;-84
2021/06/19 04:46:54;;;;;;;0.70;0.70;;;21.20;76.90;;;;;;5086141;28;20050;-84
2021/06/19 04:49:20;;;;;;;0.70;0.70;;;21.20;76.90;;;;;;5100150;28;20111;-87
2021/06/19 04:51:46;;;;;;;0.77;0.77;;;21.20;76.90;;;;;;5065532;28;20044;-85
2021/06/19 04:54:12;;;;;;;0.80;0.77;;;21.20;76.90;;;;;;5081295;28;20130;-84
2021/06/19 04:56:39;;;;;;;1.67;0.70;;;21.20;77.00;;;;;;5117907;28;20481;-84
2021/06/19 04:59:05;;;;;;;1.05;0.98;;;21.10;76.90;;;;;;5082663;28;20043;-86
2021/06/19 05:01:32;;;;;;;0.70;0.70;;;21.20;76.90;;;;;;5098960;28;20398;-85
2021/06/19 05:04:00;;;;;;;0.88;0.88;;;21.20;76.90;;;;;;5100884;28;20125;-84
2021/06/19 05:06:26;;;;;;;0.77;0.77;;;21.20;77.00;;;;;;5083324;28;20063;-84
2021/06/19 05:08:52;;;;;;;0.60;0.60;;;21.10;76.90;;;;;;5098940;28;20096;-85
2021/06/19 05:11:17;;;;;;;0.75;0.70;;;21.20;77.00;;;;;;5063686;28;20047;-83
2021/06/19 05:13:43;;;;;;;0.70;0.70;;;21.20;77.00;;;;;;5114920;28;20048;-84
2021/06/19 05:16:09;;;;;;;0.80;0.80;;;21.20;76.90;;;;;;5096081;28;20039;-82
2021/06/19 05:18:34;;;;;;;1.13;0.93;;;21.20;76.90;;;;;;5079412;28;20039;-85
2021/06/19 05:21:00;;;;;;;0.80;0.73;;;21.30;76.80;;;;;;5079017;28;20047;-83
2021/06/19 05:23:26;;;;;;;1.15;1.05;;;21.40;76.70;;;;;;5096216;28;20130;-83
2021/06/19 05:25:51;;;;;;;1.00;0.90;;;21.30;76.50;;;;;;5096496;28;20039;-83
2021/06/19 05:28:17;;;;;;;1.10;1.00;;;21.30;76.50;;;;;;5098466;28;20035;-82
2021/06/19 05:30:43;;;;;;;0.82;0.82;;;21.40;76.50;;;;;;5090122;28;20040;-82
2021/06/19 05:33:08;;;;;;;1.00;1.00;;;21.40;76.50;;;;;;5123235;28;20463;-81
2021/06/19 05:35:34;;;;;;;1.52;1.05;;;21.40;76.50;;;;;;5107878;28;20055;-83
2021/06/19 05:38:00;;;;;;;1.75;1.20;;;21.30;76.70;;;;;;5093749;28;20055;-82
2021/06/19 05:40:26;;;;;;;1.15;1.05;;;21.30;76.80;;;;;;5103086;28;20047;-81
2021/06/19 05:42:53;;;;;;;1.40;1.27;;;21.30;76.80;;;;;;5107788;28;20070;-80
2021/06/19 05:45:19;;;;;;;1.05;0.95;;;21.20;76.80;;;;;;5075146;28;20044;-81
2021/06/19 05:47:44;;;;;;;1.42;1.20;;;21.30;76.70;;;;;;5110800;28;20047;-83
2021/06/19 05:50:11;;;;;;;1.73;1.50;;;21.30;76.50;;;;;;5109878;28;20055;-82
2021/06/19 05:52:37;;;;;;;1.38;1.27;;;21.30;76.50;;;;;;5093895;28;20073;-82
2021/06/19 05:55:05;;;;;;;1.40;1.25;;;21.30;76.70;;;;;;5110108;28;20048;-82
2021/06/19 05:57:31;;;;;;;1.52;1.30;;;21.30;76.80;;;;;;5108832;28;20103;-81
2021/06/19 05:59:57;;;;;;;1.00;0.90;;;21.20;76.70;;;;;;5076492;28;20039;-82
2021/06/19 06:02:22;;;;;;;1.80;1.10;;;21.20;76.70;;;;;;5090546;28;20043;-81
2021/06/19 06:04:48;;;;;;;0.90;0.90;;;21.20;76.70;;;;;;5130363;28;20015;-81
2021/06/19 06:07:14;;;;;;;0.90;0.90;;;21.20;76.70;;;;;;5129092;28;20504;-80
2021/06/19 06:09:39;;;;;;;1.20;1.10;;;21.30;76.80;;;;;;5093950;28;20413;-81
2021/06/19 06:12:07;;;;;;;1.23;1.13;;;21.30;76.80;;;;;;5094881;28;20039;-80
2021/06/19 06:14:33;;;;;;;1.40;1.20;;;21.30;76.70;;;;;;5130630;27;20035;-81
2021/06/19 06:16:59;;;;;;;1.95;1.50;;;21.30;76.50;;;;;;5108781;28;20096;-81
2021/06/19 06:19:24;;;;;;;3.22;1.77;;;21.30;76.50;;;;;;5113930;28;20051;-82
2021/06/19 06:21:50;;;;;;;2.38;1.75;;;21.50;76.60;;;;;;5112773;28;20047;-82
2021/06/19 06:24:17;;;;;;;2.65;2.00;;;21.40;76.50;;;;;;5094315;28;20481;-81
2021/06/19 06:26:43;;;;;;;4.47;2.00;;;21.30;76.50;;;;;;5076024;28;20027;-81
2021/06/19 06:29:09;;;;;;;2.50;1.75;;;21.40;76.50;;;;;;5092523;28;20043;-83
2021/06/19 06:31:34;;;;;;;3.15;1.80;;;21.40;76.50;;;;;;5108480;28;20138;-81
2021/06/19 06:34:00;;;;;;;3.17;1.83;;;21.50;76.40;;;;;;5098565;28;20038;-82
2021/06/19 06:36:26;;;;;;;2.50;1.83;;;21.50;76.20;;;;;;5098955;28;20043;-81
2021/06/19 06:38:52;;;;;;;2.60;1.85;;;21.60;76.20;;;;;;5110798;28;20046;-83
2021/06/19 06:41:17;;;;;;;3.33;1.92;;;21.60;76.00;;;;;;5128920;28;20530;-80
2021/06/19 06:43:43;;;;;;;2.60;1.98;;;21.60;76.00;;;;;;5108179;28;20044;-82
2021/06/19 06:46:09;;;;;;;3.00;2.10;;;21.70;75.90;;;;;;5093673;28;20066;-82
2021/06/19 06:48:34;;;;;;;2.75;1.83;;;21.70;75.90;;;;;;5130505;28;20040;-82
2021/06/19 06:51:00;;;;;;;3.65;2.38;;;21.70;75.80;;;;;;5095297;28;20485;-82
2021/06/19 06:53:36;;;;;;;3.05;2.08;;;21.80;75.70;;;;;;5120564;28;20400;-82
2021/06/19 06:56:05;;;;;;;2.42;1.90;;;21.80;75.30;;;;;;5100066;28;20047;-81
2021/06/19 06:58:34;;;;;;;3.60;2.10;;;21.90;75.30;;;;;;5089718;28;20044;-81
2021/06/19 07:01:00;;;;;;;3.33;2.10;;;22.00;75.00;;;;;;5074032;28;20036;-80
2021/06/19 07:03:26;;;;;;;2.35;1.85;;;22.20;74.70;;;;;;5089701;28;20066;-82
2021/06/19 07:05:53;;;;;;;2.55;1.90;;;22.30;74.40;;;;;;5091813;28;20059;-81
2021/06/19 07:08:19;;;;;;;3.70;2.13;;;22.30;74.20;;;;;;5111252;28;20034;-81
2021/06/19 07:10:45;;;;;;;3.00;2.03;;;22.50;73.90;;;;;;5112409;28;20074;-81
2021/06/19 07:13:11;;;;;;;3.08;2.38;;;22.60;73.70;;;;;;5099736;28;20108;-82
2021/06/19 07:15:37;;;;;;;3.03;1.88;;;22.60;74.00;;;;;;5094796;28;20043;-82
2021/06/19 07:18:03;;;;;;;2.67;1.80;;;22.70;73.30;;;;;;5079169;28;20081;-80
2021/06/19 07:20:29;;;;;;;2.33;1.80;;;22.70;73.20;;;;;;5079019;28;20464;-81
2021/06/19 07:22:55;;;;;;;2.65;1.90;;;22.80;73.20;;;;;;5077877;28;20043;-85
2021/06/19 07:25:21;;;;;;;2.47;1.67;;;22.80;72.90;;;;;;5081902;28;20370;-81
2021/06/19 07:27:53;;;;;;;2.97;1.67;;;22.70;73.00;;;;;;5078873;28;20039;-81
2021/06/19 07:30:21;;;;;;;2.40;1.73;;;22.70;73.30;;;;;;5096725;28;20497;-77
2021/06/19 07:32:47;;;;;;;2.50;1.77;;;22.80;73.50;;;;;;5114016;28;20035;-81
2021/06/19 07:35:14;;;;;;;2.20;1.60;;;23.00;73.00;;;;;;5112562;28;20054;-80
2021/06/19 07:37:40;;;;;;;2.00;1.60;;;23.10;72.70;;;;;;5061958;28;20201;-81
2021/06/19 07:40:07;;;;;;;2.53;1.65;;;23.20;72.50;;;;;;5099298;28;20074;-79
2021/06/19 07:42:35;;;;;;;2.47;1.75;;;23.40;72.10;;;;;;5096325;28;20039;-81
2021/06/19 07:45:04;;;;;;;2.53;1.60;;;23.40;71.80;;;;;;5098325;28;20481;-80
2021/06/19 07:47:30;;;;;;;2.25;1.65;;;23.40;71.70;;;;;;5098094;28;20084;-82
2021/06/19 07:49:55;;;;;;;3.15;1.90;;;23.60;71.70;;;;;;5063888;28;20400;-82
2021/06/19 07:52:21;;;;;;;2.60;1.95;;;23.70;71.30;;;;;;5117524;28;20046;-84
2021/06/19 07:54:48;;;;;;;1.90;1.70;;;23.70;71.30;;;;;;5105441;28;20093;-80
2021/06/19 07:57:14;;;;;;;3.65;1.90;;;23.80;71.30;;;;;;5107837;28;20069;-80
2021/06/19 07:59:40;;;;;;;1.98;1.65;;;23.80;71.10;;;;;;5096883;28;20047;-82
2021/06/19 08:02:06;;;;;;;2.08;1.70;;;23.90;71.20;;;;;;5066754;28;20032;-82
2021/06/19 08:04:34;;;;;;;2.33;1.77;;;23.70;71.00;;;;;;5118555;28;20131;-80
2021/06/19 08:06:59;;;;;;;2.67;1.88;;;23.60;71.30;;;;;;5116355;28;20059;-82
2021/06/19 08:09:25;;;;;;;2.20;1.83;;;23.60;71.50;;;;;;5081328;28;20408;-82
2021/06/19 08:11:51;;;;;;;3.17;2.22;;;23.40;71.60;;;;;;5063983;28;20084;-83
2021/06/19 08:14:18;;;;;;;2.30;1.75;;;23.40;71.70;;;;;;5080641;28;20512;-84
2021/06/19 08:16:51;;;;;;;4.47;2.15;;;23.50;71.90;;;;;;5116122;28;20489;-81
2021/06/19 08:19:17;;;;;;;2.75;1.95;;;23.40;71.90;;;;;;5097442;28;20549;-83
2021/06/19 08:21:43;;;;;;;3.00;2.08;;;23.50;71.60;;;;;;5080390;28;20048;-82
2021/06/19 08:24:09;;;;;;;3.90;2.20;;;23.70;71.50;;;;;;5097691;28;20081;-80
2021/06/19 08:26:38;;;;;;;3.58;2.10;;;23.90;70.90;;;;;;5081271;28;20048;-88
2021/06/19 08:39:43;;;;;;;3.40;2.05;;;24.10;70.40;;;;;;4959487;29;20450;-83
2021/06/19 08:42:13;;;;;;;3.28;2.40;;;23.90;70.70;;;;;;5011407;28;20496;-85
2021/06/19 08:51:46;;;;;;;2.78;1.92;;;23.50;71.80;;;;;;4915524;29;20044;-85
2021/06/19 08:54:24;;;;;;;3.42;2.13;;;23.60;71.70;;;;;;4914281;29;20179;-84
2021/06/19 08:56:56;;;;;;;2.50;1.98;;;23.60;71.40;;;;;;4822710;29;20097;-82
2021/06/19 08:59:22;;;;;;;3.22;1.95;;;23.70;71.10;;;;;;4827991;29;20387;-83
2021/06/19 09:01:48;;;;;;;2.20;1.85;;;23.70;70.90;;;;;;4843146;29;20094;-81
2021/06/19 09:04:14;;;;;;;2.08;1.73;;;23.60;71.20;;;;;;4840223;29;20405;-82
2021/06/19 09:06:42;;;;;;;2.28;1.58;;;23.60;71.40;;;;;;4841584;29;20091;-84
2021/06/19 09:09:18;;;;;;;1.90;1.70;;;23.60;71.40;;;;;;4832287;29;20081;-81
2021/06/19 09:11:47;;;;;;;3.13;2.00;;;23.70;71.10;;;;;;4876084;29;20045;-83
2021/06/19 09:14:16;;;;;;;2.28;1.88;;;23.80;70.70;;;;;;4882644;29;20512;-82
2021/06/19 09:16:44;;;;;;;2.05;1.73;;;23.80;70.60;;;;;;4902108;29;20052;-82
2021/06/19 09:19:32;;;;;;;2.45;1.83;;;23.80;70.80;;;;;;4934511;29;20441;-82
2021/06/19 09:22:26;;;;;;;2.33;1.63;;;23.80;70.90;;;;;;4994142;28;20049;-82
2021/06/19 09:24:55;;;;;;;2.00;1.55;;;23.60;70.90;;;;;;5020637;28;20136;-81
2021/06/19 09:27:36;;;;;;;1.70;1.58;;;23.60;70.90;;;;;;5037015;28;20036;-83
2021/06/19 09:30:14;;;;;;;1.95;1.50;;;23.60;70.90;;;;;;5036727;28;20135;-83
2021/06/19 09:32:51;;;;;;;2.33;1.60;;;23.60;70.90;;;;;;5037180;28;20041;-81
2021/06/19 09:35:24;;;;;;;2.15;1.52;;;23.70;70.80;;;;;;5099436;28;20043;-83
2021/06/19 09:37:52;;;;;;;2.00;1.50;;;23.70;70.90;;;;;;5088172;28;20040;-83
2021/06/19 09:40:39;;;;;;;2.08;1.70;;;24.10;70.40;;;;;;5100614;28;20114;-83
2021/06/19 09:43:20;;;;;;;2.95;1.85;;;24.30;69.70;;;;;;5115198;28;20035;-84
2021/06/19 09:46:09;;;;;;;2.95;1.67;;;24.20;69.60;;;;;;5114576;28;20072;-84
2021/06/19 09:48:37;;;;;;;2.80;1.90;;;24.00;70.00;;;;;;5096044;28;20031;-83
2021/06/19 09:51:14;;;;;;;2.25;1.77;;;23.90;70.10;;;;;;5079692;28;20031;-82
2021/06/19 09:53:42;;;;;;;1.98;1.48;;;24.00;70.20;;;;;;5080390;28;20481;-81
2021/06/19 09:56:10;;;;;;;1.88;1.60;;;24.20;70.30;;;;;;5087988;28;20067;-80
2021/06/19 09:58:44;;;;;;;3.80;2.55;;;24.20;69.60;;;;;;5087736;28;20123;-82
2021/06/19 10:01:17;;;;;;;2.65;1.90;;;24.20;69.40;;;;;;5116662;28;20054;-76
2021/06/19 10:03:53;;;;;;;3.83;2.30;;;24.00;70.00;;;;;;5119765;28;20122;-79
2021/06/19 10:06:19;;;;;;;4.65;2.30;;;24.10;69.90;;;;;;5117928;28;20047;-82
2021/06/19 10:08:46;;;;;;;2.30;1.75;;;24.30;69.50;;;;;;5101057;28;20409;-81
2021/06/19 10:11:13;;;;;;;2.83;1.98;;;24.40;69.20;;;;;;5087909;28;20048;-82
2021/06/19 10:13:42;;;;;;;3.70;2.50;;;24.50;68.90;;;;;;5118750;28;20059;-83
2021/06/19 10:16:10;;;;;;;2.28;1.60;;;24.60;68.80;;;;;;5081935;28;20044;-82
2021/06/19 10:18:38;;;;;;;3.20;2.30;;;24.70;68.60;;;;;;5084446;28;20542;-81
2021/06/19 10:21:05;;;;;;;3.30;2.00;;;24.90;68.20;;;;;;5101068;28;20047;-84
2021/06/19 10:23:32;;;;;;;2.15;1.77;;;25.10;67.90;;;;;;5097768;28;20055;-83
2021/06/19 10:25:58;;;;;;;2.10;1.90;;;25.20;67.60;;;;;;5082183;28;20036;-79
2021/06/19 10:28:28;;;;;;;1.75;1.60;;;25.40;67.30;;;;;;5090029;28;20193;-85
2021/06/19 10:30:55;;;;;;;2.53;1.92;;;25.40;67.10;;;;;;5072051;28;20064;-81
2021/06/19 10:33:36;;;;;;;2.33;1.80;;;25.50;67.20;;;;;;5079474;28;20064;-82
2021/06/19 10:36:06;;;;;;;2.17;1.70;;;25.70;67.00;;;;;;5073861;28;20040;-85
2021/06/19 10:38:47;;;;;;;1.92;1.60;;;25.60;66.70;;;;;;5070295;28;20068;-83
2021/06/19 10:41:19;;;;;;;2.03;1.63;;;25.70;66.60;;;;;;5055381;28;20036;-85
2021/06/19 10:43:47;;;;;;;2.10;1.67;;;25.50;67.10;;;;;;5055494;28;20098;-84
2021/06/19 10:46:32;;;;;;;2.80;1.80;;;25.50;67.10;;;;;;5072109;28;20083;-84
2021/06/19 10:48:59;;;;;;;2.00;1.67;;;25.50;67.40;;;;;;5072145;28;20059;-84
2021/06/19 10:51:28;;;;;;;2.53;2.10;;;25.40;67.70;;;;;;5054794;28;20098;-84
2021/06/19 10:54:15;;;;;;;2.83;2.05;;;25.30;67.30;;;;;;5054316;28;20064;-85
2021/06/19 10:56:50;;;;;;;2.10;1.90;;;25.40;67.50;;;;;;5072206;28;20050;-85
2021/06/19 10:59:26;;;;;;;2.53;1.90;;;24.90;67.70;;;;;;5070547;28;20046;-84
2021/06/19 11:01:53;;;;;;;2.75;2.10;;;24.90;68.40;;;;;;5086084;28;20053;-82
2021/06/19 11:04:45;;;;;;;3.50;2.58;;;24.70;68.60;;;;;;5113618;28;20070;-82
2021/06/19 11:07:36;;;;;;;2.05;1.80;;;24.70;68.60;;;;;;5095230;28;20045;-84
2021/06/19 11:10:03;;;;;;;2.85;2.10;;;24.60;68.70;;;;;;5096143;28;20138;-83
2021/06/19 11:12:32;;;;;;;1.90;1.60;;;24.50;68.90;;;;;;5078588;28;20119;-84
2021/06/19 11:15:08;;;;;;;1.95;1.73;;;24.50;69.00;;;;;;5095391;28;20038;-84
2021/06/19 11:17:39;;;;;;;3.08;2.00;;;24.60;68.70;;;;;;5099302;28;20137;-84
2021/06/19 11:20:23;;;;;;;2.30;1.80;;;24.60;68.50;;;;;;5084214;28;20040;-80
2021/06/19 11:23:03;;;;;;;3.08;1.85;;;24.60;68.50;;;;;;5102805;28;20404;-83
2021/06/19 11:25:39;;;;;;;4.20;2.22;;;24.60;68.40;;;;;;5050738;28;20048;-87
2021/06/19 11:28:11;;;;;;;2.47;2.00;;;24.70;68.10;;;;;;5051054;28;20069;-81
2021/06/19 11:30:42;;;;;;;3.30;2.53;;;24.90;67.80;;;;;;5034016;28;20116;-85
2021/06/19 11:33:31;;;;;;;3.40;2.20;;;24.90;67.60;;;;;;5034163;28;20045;-85
2021/06/19 11:36:26;;;;;;;2.38;2.10;;;24.90;67.40;;;;;;5034172;28;20053;-85
2021/06/19 11:38:57;;;;;;;3.03;2.00;;;24.90;67.50;;;;;;5041790;28;20041;-86
2021/06/19 11:41:29;;;;;;;3.28;2.10;;;24.90;67.50;;;;;;5019051;28;20045;-86
2021/06/19 11:43:55;;;;;;;4.97;2.40;;;24.80;67.50;;;;;;5055632;28;20048;-85
2021/06/19 11:46:22;;;;;;;5.20;2.10;;;24.70;67.70;;;;;;5037877;28;20037;-87
2021/06/19 11:48:52;;;;;;;4.20;2.20;;;24.70;67.80;;;;;;5005297;28;20128;-84
2021/06/19 11:51:20;;;;;;;2.40;1.98;;;24.60;67.80;;;;;;5023324;28;20449;-86
2021/06/19 11:53:46;;;;;;;3.83;2.50;;;24.70;68.40;;;;;;5022051;28;20516;-81
2021/06/19 11:56:21;;;;;;;3.38;2.33;;;24.80;67.70;;;;;;5064391;28;20105;-84
2021/06/19 11:58:50;;;;;;;2.83;2.35;;;24.80;67.50;;;;;;5083462;28;20048;-82
2021/06/19 12:01:29;;;;;;;3.42;2.38;;;24.70;67.60;;;;;;5118719;28;20039;-84
2021/06/19 12:04:00;;;;;;;3.65;2.47;;;24.70;67.50;;;;;;5091250;28;20039;-81
2021/06/19 12:06:44;;;;;;;2.60;2.20;;;24.60;67.50;;;;;;5089387;28;20043;-86
2021/06/19 12:09:25;;;;;;;3.20;2.30;;;24.60;67.70;;;;;;5098612;28;20110;-82
2021/06/19 12:11:56;;;;;;;2.50;2.03;;;24.50;67.90;;;;;;5083114;28;20050;-87
2021/06/19 12:14:25;;;;;;;3.17;2.25;;;24.40;68.10;;;;;;5100369;28;20047;-82
2021/06/19 12:16:53;;;;;;;2.80;2.05;;;24.40;68.00;;;;;;5082951;28;20051;-81
2021/06/19 12:19:56;;;;;;;3.28;2.40;;;24.50;67.90;;;;;;5103744;28;20051;-86
2021/06/19 12:22:37;;;;;;;2.22;1.95;;;24.50;67.90;;;;;;5101186;28;20070;-87
2021/06/19 12:25:07;;;;;;;2.47;2.00;;;24.60;67.70;;;;;;5080610;28;20403;-83
2021/06/19 12:27:43;;;;;;;3.83;2.50;;;24.60;67.40;;;;;;5082992;28;20049;-82
2021/06/19 12:30:09;;;;;;;3.00;2.35;;;24.50;67.40;;;;;;5116638;28;20035;-83
2021/06/19 12:32:49;;;;;;;3.58;2.42;;;24.40;67.60;;;;;;5082018;28;20054;-87
2021/06/19 12:35:48;;;;;;;2.73;2.30;;;24.40;67.90;;;;;;5038924;28;20041;-90
2021/06/19 12:38:18;;;;;;;2.80;2.13;;;24.40;67.70;;;;;;5016112;28;20272;-83
2021/06/19 12:40:48;;;;;;;2.90;2.22;;;24.30;67.80;;;;;;5018586;28;20042;-84
2021/06/19 12:43:14;;;;;;;4.10;2.50;;;24.30;67.90;;;;;;5035382;28;20112;-83
2021/06/19 12:45:44;;;;;;;2.80;2.20;;;24.20;68.00;;;;;;5032127;28;20048;-79
2021/06/19 12:48:35;;;;;;;4.27;2.37;;;24.20;67.90;;;;;;5033808;28;20033;-83
2021/06/19 12:51:02;;;;;;;3.47;2.53;;;24.30;67.60;;;;;;5033721;28;20037;-81
2021/06/19 12:53:31;;;;;;;3.53;2.40;;;24.30;67.50;;;;;;5034999;28;20033;-83
2021/06/19 12:56:04;;;;;;;3.35;2.40;;;24.40;67.30;;;;;;5035181;28;20202;-79
2021/06/19 12:58:42;;;;;;;3.05;2.15;;;24.60;67.00;;;;;;5035028;28;20037;-82
2021/06/19 13:01:22;;;;;;;3.03;2.17;;;24.70;66.60;;;;;;5039431;28;20041;-85
2021/06/19 13:03:51;;;;;;;2.03;1.80;;;24.80;66.40;;;;;;5039935;28;20033;-82
2021/06/19 13:06:43;;;;;;;2.63;2.10;;;24.80;66.20;;;;;;5056957;28;20047;-83
2021/06/19 13:09:11;;;;;;;2.83;2.28;;;24.80;66.40;;;;;;5051888;28;20070;-84
2021/06/19 13:11:39;;;;;;;3.15;2.20;;;24.90;66.40;;;;;;5073021;28;20044;-83
2021/06/19 13:14:25;;;;;;;2.25;1.85;;;24.90;66.30;;;;;;5054628;28;20502;-84